createdAt,value
2022-09-28T00:01:17.561Z,3.10
2022-09-28T00:03:46.298Z,3.22
2022-09-28T00:06:16.016Z,2.80
2022-09-28T00:08:43.559Z,2.90
2022-09-28T00:11:13.730Z,2.78
2022-09-28T00:13:44.664Z,2.95
2022-09-28T00:16:14.895Z,3.10
2022-09-28T00:18:41.991Z,3.40
2022-09-28T00:21:13.684Z,3.20
2022-09-28T00:24:00.870Z,3.20
2022-09-28T00:26:28.963Z,3.17
2022-09-28T00:29:00.358Z,2.97
2022-09-28T00:31:29.601Z,2.60
2022-09-28T00:34:00.334Z,2.85
2022-09-28T00:36:28.643Z,2.97
2022-09-28T00:38:56.495Z,2.63
2022-09-28T00:41:25.071Z,2.78
2022-09-28T00:43:52.541Z,3.28
2022-09-28T00:46:28.884Z,2.83
2022-09-28T00:49:00.164Z,3.08
2022-09-28T00:51:27.480Z,3.17
2022-09-28T00:53:56.179Z,2.53
2022-09-28T00:56:26.475Z,2.22
2022-09-28T00:58:54.610Z,2.45
2022-09-28T01:01:21.736Z,2.50
2022-09-28T01:03:48.918Z,2.30
2022-09-28T01:06:20.520Z,2.30
2022-09-28T01:08:51.178Z,2.33
2022-09-28T01:11:19.626Z,2.28
2022-09-28T01:13:50.081Z,2.05
2022-09-28T01:19:37.643Z,2.20
2022-09-28T01:22:27.559Z,2.22
2022-09-28T01:25:41.004Z,2.20
2022-09-28T01:28:19.303Z,2.10
2022-09-28T01:31:09.747Z,1.77
2022-09-28T01:33:44.793Z,1.90
2022-09-28T01:36:25.892Z,2.10
2022-09-28T01:38:59.074Z,2.35
2022-09-28T01:41:28.811Z,1.90
2022-09-28T01:43:57.532Z,1.90
2022-09-28T01:46:30.316Z,1.77
2022-09-28T01:48:58.664Z,1.70
2022-09-28T01:51:34.331Z,1.90
2022-09-28T01:54:10.711Z,1.50
2022-09-28T01:56:44.614Z,2.10
2022-09-28T01:59:16.217Z,1.70
2022-09-28T02:02:09.794Z,1.70
2022-09-28T02:04:44.040Z,1.80
2022-09-28T02:07:20.391Z,1.60
2022-09-28T02:09:52.880Z,1.42
2022-09-28T02:12:26.291Z,1.50
2022-09-28T02:14:59.433Z,1.35
2022-09-28T02:17:26.267Z,1.60
2022-09-28T02:19:53.052Z,1.50
2022-09-28T02:22:28.530Z,1.52
2022-09-28T02:25:09.899Z,1.58
2022-09-28T02:27:43.988Z,6.28
2022-09-28T02:30:11.379Z,6.90
2022-09-28T02:32:42.574Z,5.22
2022-09-28T02:35:12.656Z,2.80
2022-09-28T02:37:40.587Z,1.88
2022-09-28T02:40:19.616Z,1.85
2022-09-28T02:43:09.677Z,1.70
2022-09-28T02:45:58.338Z,1.88
2022-09-28T02:49:20.259Z,2.58
2022-09-28T02:52:25.666Z,2.53
2022-09-28T02:54:58.260Z,2.33
2022-09-28T02:58:03.576Z,2.92
2022-09-28T03:00:33.637Z,3.80
2022-09-28T03:03:19.715Z,3.30
2022-09-28T03:06:03.324Z,3.30
2022-09-28T03:08:35.531Z,3.38
2022-09-28T03:11:25.133Z,2.90
2022-09-28T03:13:52.930Z,2.80
2022-09-28T03:16:20.242Z,2.55
2022-09-28T03:18:47.723Z,2.90
2022-09-28T03:21:15.471Z,2.33
2022-09-28T03:23:43.297Z,2.25
2022-09-28T03:26:12.890Z,2.40
2022-09-28T03:28:40.122Z,2.53
2022-09-28T03:31:07.262Z,1.67
2022-09-28T03:33:34.115Z,1.30
2022-09-28T03:36:01.008Z,1.40
2022-09-28T03:38:27.667Z,1.00
2022-09-28T03:40:59.674Z,1.02
2022-09-28T03:43:27.535Z,1.10
2022-09-28T03:45:55.719Z,0.98
2022-09-28T03:48:41.633Z,0.88
2022-09-28T03:51:10.430Z,0.90
2022-09-28T03:53:37.877Z,1.17
2022-09-28T03:56:12.271Z,0.90
2022-09-28T03:58:39.197Z,0.80
2022-09-28T04:01:12.967Z,0.80
2022-09-28T04:03:43.422Z,0.75
2022-09-28T04:06:10.465Z,0.80
2022-09-28T04:08:37.337Z,0.80
2022-09-28T04:11:04.054Z,0.60
2022-09-28T04:13:31.184Z,0.65
2022-09-28T04:16:00.591Z,0.80
2022-09-28T04:18:27.696Z,0.80
2022-09-28T04:21:08.957Z,0.70
2022-09-28T04:23:37.487Z,0.60
2022-09-28T04:26:06.288Z,0.55
2022-09-28T04:28:51.626Z,0.68
2022-09-28T04:31:21.777Z,0.70
2022-09-28T04:33:48.734Z,0.70
2022-09-28T04:36:15.654Z,0.50
2022-09-28T04:38:52.672Z,0.50
2022-09-28T04:41:22.201Z,0.60
2022-09-28T04:43:49.214Z,0.50
2022-09-28T04:46:16.065Z,0.60
2022-09-28T04:48:42.796Z,0.60
2022-09-28T04:51:09.560Z,0.60
2022-09-28T04:53:36.233Z,0.60
2022-09-28T04:56:09.497Z,0.60
2022-09-28T04:58:36.511Z,0.70
2022-09-28T05:01:10.740Z,0.70
2022-09-28T05:03:38.354Z,0.80
2022-09-28T05:06:06.915Z,0.70
2022-09-28T05:08:35.270Z,0.70
2022-09-28T05:11:05.338Z,0.60
2022-09-28T05:13:35.664Z,0.73
2022-09-28T05:16:05.393Z,0.70
2022-09-28T05:18:32.560Z,0.90
2022-09-28T05:20:59.400Z,0.80
2022-09-28T05:23:26.160Z,0.80
2022-09-28T05:25:53.077Z,0.80
2022-09-28T05:28:25.288Z,0.75
2022-09-28T05:30:52.332Z,0.90
2022-09-28T05:33:19.090Z,0.90
2022-09-28T05:35:47.934Z,0.82
2022-09-28T05:38:17.847Z,0.82
2022-09-28T05:40:44.605Z,0.80
2022-09-28T05:43:11.506Z,0.88
2022-09-28T05:45:38.330Z,0.90
2022-09-28T05:48:05.187Z,0.88
2022-09-28T05:50:33.049Z,0.80
2022-09-28T05:53:06.082Z,0.98
2022-09-28T05:55:33.238Z,0.70
2022-09-28T05:58:01.533Z,0.75
2022-09-28T06:00:29.476Z,0.80
2022-09-28T06:02:57.912Z,0.60
2022-09-28T06:05:24.954Z,0.60
2022-09-28T06:07:51.947Z,0.60
2022-09-28T06:10:18.708Z,0.70
2022-09-28T06:12:47.809Z,0.70
2022-09-28T06:15:16.254Z,1.98
2022-09-28T06:17:43.837Z,0.60
2022-09-28T06:20:11.631Z,0.93
2022-09-28T06:22:38.808Z,0.90
2022-09-28T06:25:07.154Z,1.10
2022-09-28T06:27:34.562Z,1.23
2022-09-28T06:30:02.227Z,0.90
2022-09-28T06:32:29.743Z,1.30
2022-09-28T06:34:57.502Z,1.52
2022-09-28T06:37:25.970Z,2.03
2022-09-28T06:39:58.590Z,2.00
2022-09-28T06:42:27.322Z,3.15
2022-09-28T06:44:59.200Z,3.90
2022-09-28T06:47:40.013Z,3.60
2022-09-28T06:50:12.157Z,3.00
2022-09-28T06:52:46.047Z,2.50
2022-09-28T06:55:12.712Z,2.50
2022-09-28T06:57:43.637Z,1.98
2022-09-28T07:00:10.930Z,1.92
2022-09-28T07:02:37.691Z,1.73
2022-09-28T07:05:14.724Z,1.40
2022-09-28T07:07:44.755Z,1.50
2022-09-28T07:10:12.851Z,1.48
2022-09-28T07:12:40.589Z,1.60
2022-09-28T07:15:09.091Z,1.10
2022-09-28T07:17:48.124Z,1.27
2022-09-28T07:20:21.410Z,2.38
2022-09-28T07:23:16.021Z,1.10
2022-09-28T07:25:47.886Z,1.27
2022-09-28T07:28:22.339Z,1.20
2022-09-28T07:30:49.118Z,1.40
2022-09-28T07:33:19.001Z,1.40
2022-09-28T07:36:02.762Z,1.20
2022-09-28T07:38:54.543Z,1.10
2022-09-28T07:41:32.453Z,1.27
2022-09-28T07:44:07.468Z,1.17
2022-09-28T07:46:35.183Z,1.30
2022-09-28T07:49:08.375Z,1.05
2022-09-28T07:51:38.360Z,1.20
2022-09-28T07:54:06.186Z,0.98
2022-09-28T07:56:33.990Z,1.20
2022-09-28T07:59:02.818Z,1.02
2022-09-28T08:01:30.946Z,1.10
2022-09-28T08:03:57.662Z,1.10
2022-09-28T08:06:25.455Z,1.00
2022-09-28T08:08:56.197Z,1.00
2022-09-28T08:11:22.960Z,0.88
2022-09-28T08:13:50.903Z,0.88
2022-09-28T08:16:18.345Z,0.73
2022-09-28T08:18:48.176Z,0.93
2022-09-28T08:21:33.872Z,0.85
2022-09-28T08:24:00.797Z,0.80
2022-09-28T08:26:28.970Z,0.75
2022-09-28T08:28:55.622Z,0.95
2022-09-28T08:31:22.446Z,0.70
2022-09-28T08:33:53.807Z,0.60
2022-09-28T08:36:24.135Z,0.60
2022-09-28T08:38:50.818Z,0.70
2022-09-28T08:41:35.958Z,0.68
2022-09-28T08:44:24.148Z,0.60
2022-09-28T08:47:00.933Z,0.60
2022-09-28T08:49:34.792Z,0.40
2022-09-28T08:52:16.367Z,0.60
2022-09-28T08:55:04.071Z,0.35
2022-09-28T08:57:33.445Z,0.47
2022-09-28T09:00:02.712Z,0.43
2022-09-28T09:02:33.642Z,0.40
2022-09-28T09:05:03.939Z,0.40
2022-09-28T09:07:48.721Z,0.30
2022-09-28T09:10:55.243Z,0.30
2022-09-28T09:13:43.109Z,0.43
2022-09-28T09:16:27.134Z,0.60
2022-09-28T09:19:12.614Z,0.30
2022-09-28T09:21:42.185Z,0.20
2022-09-28T09:24:51.144Z,0.40
2022-09-28T09:27:27.922Z,0.30
2022-09-28T09:30:19.423Z,0.50
2022-09-28T09:33:05.970Z,0.30
2022-09-28T09:35:37.471Z,0.35
2022-09-28T09:38:27.801Z,0.45
2022-09-28T09:41:15.882Z,0.20
2022-09-28T09:44:11.664Z,0.20
2022-09-28T09:46:44.333Z,0.30
2022-09-28T09:49:19.681Z,0.47
2022-09-28T09:52:06.674Z,0.20
2022-09-28T09:54:37.539Z,0.30
2022-09-28T09:57:46.582Z,0.40
2022-09-28T10:00:15.249Z,0.10
2022-09-28T10:02:44.983Z,0.15
2022-09-28T10:05:11.630Z,0.30
2022-09-28T10:08:01.599Z,0.10
2022-09-28T10:10:29.535Z,0.10
2022-09-28T10:12:56.835Z,0.30
2022-09-28T10:15:28.724Z,0.20
2022-09-28T10:17:58.976Z,0.40
2022-09-28T10:20:34.678Z,0.40
2022-09-28T10:23:04.924Z,0.45
2022-09-28T10:25:37.343Z,0.40
2022-09-28T10:28:06.880Z,0.20
2022-09-28T10:30:44.346Z,0.30
2022-09-28T10:33:34.268Z,0.32
2022-09-28T10:36:04.904Z,0.33
2022-09-28T10:38:33.851Z,0.50
2022-09-28T10:41:11.215Z,0.55
2022-09-28T10:43:53.824Z,0.60
2022-09-28T10:46:24.559Z,0.50
2022-09-28T10:48:57.813Z,0.68
2022-09-28T10:51:46.643Z,0.40
2022-09-28T10:54:52.482Z,0.43
2022-09-28T10:57:35.425Z,0.63
2022-09-28T11:00:05.211Z,0.60
2022-09-28T11:02:38.014Z,0.60
2022-09-28T11:05:06.979Z,0.60
2022-09-28T11:07:43.951Z,0.60
2022-09-28T11:10:20.598Z,0.60
2022-09-28T11:12:49.341Z,0.50
2022-09-28T11:15:24.352Z,0.60
2022-09-28T11:17:51.678Z,0.40
2022-09-28T11:20:27.388Z,0.40
2022-09-28T11:22:54.711Z,0.50
2022-09-28T11:25:24.271Z,0.40
2022-09-28T11:27:50.865Z,0.33
2022-09-28T11:30:25.154Z,0.40
2022-09-28T11:33:00.415Z,0.40
2022-09-28T11:35:43.612Z,0.28
2022-09-28T11:38:42.554Z,0.25
2022-09-28T11:41:20.628Z,0.40
2022-09-28T11:44:19.368Z,0.30
2022-09-28T11:47:00.638Z,0.30
2022-09-28T11:49:52.950Z,0.43
2022-09-28T11:52:41.468Z,0.50
2022-09-28T11:55:27.775Z,0.40
2022-09-28T11:58:06.247Z,0.40
2022-09-28T12:00:42.250Z,0.40
2022-09-28T12:03:18.487Z,0.30
2022-09-28T12:05:55.596Z,0.30
2022-09-28T12:08:30.384Z,0.30
2022-09-28T12:11:02.704Z,0.30
2022-09-28T12:13:42.224Z,0.25
2022-09-28T12:17:04.050Z,0.20
2022-09-28T12:19:29.993Z,0.40
2022-09-28T12:22:12.196Z,0.50
2022-09-28T12:24:52.556Z,0.32
2022-09-28T12:27:35.138Z,0.45
2022-09-28T12:30:21.057Z,0.30
2022-09-28T12:33:15.239Z,0.43
2022-09-28T12:35:58.731Z,0.50
2022-09-28T12:38:54.148Z,0.40
2022-09-28T12:41:43.563Z,0.50
2022-09-28T12:44:29.272Z,0.55
2022-09-28T12:47:23.475Z,0.40
2022-09-28T12:53:24.167Z,0.68
2022-09-28T12:56:24.875Z,0.40
2022-09-28T12:59:03.235Z,0.40
2022-09-28T13:01:46.641Z,0.50
2022-09-28T13:04:28.511Z,0.50
2022-09-28T13:07:13.722Z,0.60
2022-09-28T13:10:01.378Z,0.43
2022-09-28T13:12:56.141Z,0.60
2022-09-28T13:15:32.125Z,0.60
2022-09-28T13:18:17.267Z,0.93
2022-09-28T13:21:15.948Z,0.65
2022-09-28T13:23:46.194Z,0.43
2022-09-28T13:26:37.031Z,0.28
2022-09-28T13:29:11.196Z,0.30
2022-09-28T13:31:55.717Z,0.30
2022-09-28T13:34:30.753Z,0.60
2022-09-28T13:37:19.856Z,0.40
2022-09-28T13:39:53.016Z,0.40
2022-09-28T13:42:47.582Z,0.40
2022-09-28T13:45:33.895Z,0.40
2022-09-28T13:48:12.985Z,0.35
2022-09-28T13:50:45.642Z,0.22
2022-09-28T13:53:44.608Z,0.30
2022-09-28T13:56:17.567Z,0.40
2022-09-28T13:58:51.490Z,0.20
2022-09-28T14:01:24.554Z,0.30
2022-09-28T14:04:19.183Z,0.25
2022-09-28T14:06:57.461Z,0.50
2022-09-28T14:09:41.442Z,0.30
2022-09-28T14:12:31.270Z,0.40
2022-09-28T14:14:58.083Z,0.40
2022-09-28T14:17:24.928Z,0.25
2022-09-28T14:20:00.545Z,0.30
2022-09-28T14:22:57.876Z,0.47
2022-09-28T14:25:32.668Z,0.50
2022-09-28T14:28:25.026Z,0.40
2022-09-28T14:30:55.440Z,0.60
2022-09-28T14:35:58.925Z,0.55
2022-09-28T14:39:03.844Z,0.43
2022-09-28T14:41:33.816Z,0.43
2022-09-28T14:44:05.213Z,0.50
2022-09-28T14:46:35.435Z,0.80
2022-09-28T14:49:23.292Z,0.50
2022-09-28T14:51:53.005Z,0.75
2022-09-28T14:54:21.961Z,0.40
2022-09-28T14:56:57.031Z,0.50
2022-09-28T14:59:26.916Z,0.60
2022-09-28T15:01:55.764Z,0.68
2022-09-28T15:04:27.870Z,0.70
2022-09-28T15:06:54.710Z,0.60
2022-09-28T15:09:36.245Z,0.60
2022-09-28T15:12:16.639Z,0.75
2022-09-28T15:14:55.096Z,0.80
2022-09-28T15:17:25.541Z,0.60
2022-09-28T15:22:22.242Z,1.00
2022-09-28T15:25:02.825Z,0.95
2022-09-28T15:27:38.641Z,1.00
2022-09-28T15:30:29.512Z,1.08
2022-09-28T15:33:17.666Z,0.80
2022-09-28T15:36:02.020Z,0.63
2022-09-28T15:38:34.048Z,0.57
2022-09-28T15:41:04.860Z,0.65
2022-09-28T15:43:34.173Z,0.60
2022-09-28T15:46:18.371Z,0.60
2022-09-28T15:48:59.636Z,0.50
2022-09-28T15:51:28.811Z,0.43
2022-09-28T15:54:02.973Z,0.60
2022-09-28T15:56:30.463Z,1.00
2022-09-28T15:59:18.902Z,1.30
2022-09-28T16:01:46.033Z,1.73
2022-09-28T16:04:38.460Z,0.75
2022-09-28T16:07:23.412Z,1.30
2022-09-28T16:10:04.853Z,1.33
2022-09-28T16:12:37.612Z,0.73
2022-09-28T16:15:26.992Z,0.82
2022-09-28T16:18:30.127Z,1.50
2022-09-28T16:21:52.876Z,0.77
2022-09-28T16:24:33.140Z,1.70
2022-09-28T16:27:20.343Z,2.30
2022-09-28T16:30:21.653Z,1.60
2022-09-28T16:32:58.394Z,3.22
2022-09-28T16:35:50.614Z,1.27
2022-09-28T16:38:18.658Z,0.95
2022-09-28T16:40:49.463Z,0.55
2022-09-28T16:43:29.396Z,2.08
2022-09-28T16:45:58.534Z,33.58
2022-09-28T16:48:30.663Z,16.95
2022-09-28T16:50:58.303Z,17.38
2022-09-28T16:53:44.197Z,9.05
2022-09-28T16:56:12.495Z,5.07
2022-09-28T16:58:39.230Z,4.72
2022-09-28T17:01:10.005Z,4.43
2022-09-28T17:03:37.082Z,3.50
2022-09-28T17:06:06.240Z,2.70
2022-09-28T17:08:35.509Z,2.70
2022-09-28T17:11:22.733Z,2.10
2022-09-28T17:13:49.140Z,1.80
2022-09-28T17:16:20.992Z,1.45
2022-09-28T17:18:52.044Z,1.35
2022-09-28T17:21:20.730Z,1.80
2022-09-28T17:23:49.712Z,1.30
2022-09-28T17:26:19.626Z,1.40
2022-09-28T17:28:46.346Z,1.80
2022-09-28T17:31:16.605Z,2.03
2022-09-28T17:33:43.783Z,2.10
2022-09-28T17:36:14.986Z,2.90
2022-09-28T17:38:42.932Z,2.55
2022-09-28T17:41:19.451Z,3.28
2022-09-28T17:43:47.312Z,3.95
2022-09-28T17:46:28.217Z,1.80
2022-09-28T17:48:57.587Z,2.20
2022-09-28T17:51:24.278Z,1.27
2022-09-28T17:53:50.944Z,1.10
2022-09-28T17:56:17.755Z,1.27
2022-09-28T17:58:44.436Z,1.23
2022-09-28T18:01:11.215Z,1.90
2022-09-28T18:03:38.557Z,3.10
2022-09-28T18:06:07.460Z,3.50
2022-09-28T18:08:34.562Z,3.53
2022-09-28T18:11:04.150Z,3.00
2022-09-28T18:13:30.815Z,3.63
2022-09-28T18:15:58.808Z,3.58
2022-09-28T18:18:26.220Z,3.78
2022-09-28T18:20:52.898Z,3.40
2022-09-28T18:23:19.820Z,3.13
2022-09-28T18:25:47.312Z,2.55
2022-09-28T18:28:14.402Z,3.08
2022-09-28T18:30:43.716Z,2.63
2022-09-28T18:33:12.213Z,3.63
2022-09-28T18:35:39.211Z,2.50
2022-09-28T18:38:06.485Z,2.65
2022-09-28T18:40:34.912Z,2.13
2022-09-28T18:43:02.617Z,2.08
2022-09-28T18:45:29.354Z,2.42
2022-09-28T18:47:56.070Z,1.95
2022-09-28T18:50:23.151Z,1.73
2022-09-28T18:52:49.912Z,1.75
2022-09-28T18:55:16.751Z,1.90
2022-09-28T18:57:44.671Z,2.08
2022-09-28T19:00:12.690Z,2.17
2022-09-28T19:02:39.770Z,1.85
2022-09-28T19:05:07.978Z,3.90
2022-09-28T19:07:34.965Z,5.72
2022-09-28T19:10:01.641Z,5.43
2022-09-28T19:12:28.381Z,5.60
2022-09-28T19:14:55.120Z,5.40
2022-09-28T19:17:21.860Z,5.40
2022-09-28T19:19:48.806Z,4.40
2022-09-28T19:22:15.452Z,4.93
2022-09-28T19:24:42.209Z,4.68
2022-09-28T19:27:08.940Z,4.57
2022-09-28T19:29:35.590Z,4.80
2022-09-28T19:32:02.531Z,3.67
2022-09-28T19:34:30.168Z,3.75
2022-09-28T19:36:57.226Z,3.40
2022-09-28T19:39:24.053Z,3.40
2022-09-28T19:41:54.273Z,3.70
2022-09-28T19:44:26.749Z,3.80
2022-09-28T19:46:55.286Z,3.35
2022-09-28T19:49:23.302Z,3.38
2022-09-28T19:52:12.242Z,3.10
2022-09-28T19:54:41.214Z,3.20
2022-09-28T19:57:08.449Z,3.17
2022-09-28T19:59:37.053Z,2.85
2022-09-28T20:02:05.260Z,2.88
2022-09-28T20:04:31.907Z,3.60
2022-09-28T20:06:59.026Z,3.15
2022-09-28T20:09:25.733Z,2.67
2022-09-28T20:11:53.136Z,2.30
2022-09-28T20:14:26.515Z,2.15
2022-09-28T20:16:57.489Z,2.63
2022-09-28T20:19:24.251Z,2.60
2022-09-28T20:21:51.145Z,2.92
2022-09-28T20:24:18.178Z,2.95
2022-09-28T20:26:45.901Z,3.47
2022-09-28T20:29:13.300Z,4.50
2022-09-28T20:31:40.370Z,4.90
2022-09-28T20:34:07.240Z,4.28
2022-09-28T20:36:34.269Z,3.28
2022-09-28T20:39:01.941Z,3.70
2022-09-28T20:41:33.442Z,3.47
2022-09-28T20:44:04.846Z,3.38
2022-09-28T20:46:32.377Z,3.20
2022-09-28T20:48:59.669Z,3.13
2022-09-28T20:51:26.539Z,5.90
2022-09-28T20:53:55.933Z,5.07
2022-09-28T20:56:26.461Z,6.28
2022-09-28T21:01:24.097Z,6.22
2022-09-28T21:03:52.351Z,4.47
2022-09-28T21:06:21.836Z,3.67
2022-09-28T21:08:49.608Z,3.42
2022-09-28T21:11:18.837Z,3.38
2022-09-28T21:13:45.821Z,3.50
2022-09-28T21:16:15.165Z,3.20
2022-09-28T21:18:42.639Z,3.53
2022-09-28T21:21:12.614Z,3.67
2022-09-28T21:23:39.603Z,3.83
2022-09-28T21:26:15.744Z,3.58
2022-09-28T21:28:44.683Z,3.88
2022-09-28T21:31:12.574Z,3.30
2022-09-28T21:33:39.355Z,3.40
2022-09-28T21:36:07.623Z,3.33
2022-09-28T21:38:34.668Z,3.33
2022-09-28T21:41:02.747Z,3.63
2022-09-28T21:43:31.774Z,3.42
2022-09-28T21:45:59.502Z,3.45
2022-09-28T21:48:28.337Z,3.55
2022-09-28T21:51:06.328Z,3.90
2022-09-28T21:53:38.184Z,3.90
2022-09-28T21:56:07.482Z,4.00
2022-09-28T21:58:35.550Z,4.00
2022-09-28T22:01:07.233Z,3.90
2022-09-28T22:03:36.141Z,3.55
2022-09-28T22:06:04.168Z,3.28
2022-09-28T22:08:31.148Z,3.70
2022-09-28T22:11:06.131Z,3.72
2022-09-28T22:13:35.837Z,4.10
2022-09-28T22:16:03.225Z,4.93
2022-09-28T22:18:31.421Z,4.60
2022-09-28T22:21:06.583Z,4.13
2022-09-28T22:23:34.513Z,4.25
2022-09-28T22:26:04.901Z,4.53
2022-09-28T22:28:31.607Z,3.88
2022-09-28T22:30:58.764Z,4.38
2022-09-28T22:33:26.244Z,4.85
2022-09-28T22:35:53.709Z,4.35
2022-09-28T22:38:24.402Z,4.72
2022-09-28T22:40:56.085Z,3.97
2022-09-28T22:43:24.206Z,3.97
2022-09-28T22:46:05.256Z,3.80
2022-09-28T22:48:32.868Z,3.75
2022-09-28T22:50:59.959Z,3.80
2022-09-28T22:53:26.936Z,3.80
2022-09-28T22:55:56.054Z,3.53
2022-09-28T22:58:25.222Z,3.72
2022-09-28T23:00:51.931Z,3.58
2022-09-28T23:03:18.666Z,3.70
2022-09-28T23:05:55.573Z,3.20
2022-09-28T23:08:23.713Z,3.50
2022-09-28T23:10:51.536Z,3.88
2022-09-28T23:13:18.689Z,3.95
2022-09-28T23:15:55.754Z,3.15
2022-09-28T23:18:23.063Z,3.58
2022-09-28T23:20:57.191Z,3.25
2022-09-28T23:23:24.431Z,3.60
2022-09-28T23:25:52.286Z,3.45
2022-09-28T23:28:20.219Z,3.47
2022-09-28T23:30:47.304Z,3.30
2022-09-28T23:33:18.980Z,3.65
2022-09-28T23:35:46.170Z,3.50
2022-09-28T23:38:14.955Z,4.00
2022-09-28T23:40:42.746Z,3.72
2022-09-28T23:43:09.467Z,3.53
2022-09-28T23:45:36.263Z,3.90
2022-09-28T23:48:03.317Z,3.70
2022-09-28T23:50:30.123Z,3.60
2022-09-28T23:52:57.107Z,3.80
2022-09-28T23:55:23.833Z,3.63
2022-09-28T23:57:50.748Z,3.58
